WetterOnline ( https://www.wetteronline.de )

Wetter aktuell Elsnig

Aktuelles Wetter: Oschatz (152m)

6-stündlich | Neueste Meldungen
Ortszeit Temperatur Wetter
Mi, 04.08. 20:00 20.1° C bedeckt
Mi, 04.08. 14:00 20.2° C bedeckt
Mi, 04.08. 8:00 14.6° C bedeckt
Mi, 04.08. 2:00 12.8° C bewölkt
Di, 03.08. 20:00 14.0° C Regen
Di, 03.08. 14:00 21.1° C bewölkt
Di, 03.08. 8:00 15.3° C wolkig
Di, 03.08. 2:00 14.1° C bewölkt
Ortszeit Temperatur Wetter
Mi, 04.08. 21:30 17.8° C bewölkt
Mi, 04.08. 21:20 17.8° C bewölkt
Mi, 04.08. 21:10 18.0° C wolkig
Mi, 04.08. 21:00 18.7° C bewölkt
Mi, 04.08. 20:50 18.7° C bewölkt
Mi, 04.08. 20:40 19.2° C bewölkt
Mi, 04.08. 20:30 19.8° C bewölkt
Mi, 04.08. 20:00 20.1° C bedeckt
Mi, 04.08. 19:30 20.7° C wolkig
Mi, 04.08. 19:00 20.9° C wolkig
Mi, 04.08. 18:30 20.9° C bewölkt
Ortszeit Relative Feuchte Sichtweite
Mi, 04.08. 20:00 73% 60 km
Mi, 04.08. 14:00 71% 40 km
Mi, 04.08. 8:00 94% 35 km
Mi, 04.08. 2:00 97% 16 km
Di, 03.08. 20:00 92% 17 km
Di, 03.08. 14:00 59% >70 km
Di, 03.08. 8:00 88% 45 km
Di, 03.08. 2:00 92% 40 km
Ortszeit Relative Feuchte Sichtweite
Mi, 04.08. 21:30 87% 35 km
Mi, 04.08. 21:20 87% -
Mi, 04.08. 21:10 86% -
Mi, 04.08. 21:00 81% 50 km
Mi, 04.08. 20:50 81% -
Mi, 04.08. 20:40 77% -
Mi, 04.08. 20:30 76% 45 km
Mi, 04.08. 20:00 73% 60 km
Mi, 04.08. 19:30 67% 60 km
Mi, 04.08. 19:00 63% 45 km
Mi, 04.08. 18:30 64% 55 km
Ortszeit Niederschlagsmenge Niederschlagsart
Mi, 04.08. 20:00 1 l/m2 in 12 Std. Regen
Mi, 04.08. 14:00 1 l/m2 in 6 Std. Regen
Mi, 04.08. 8:00 0.3 l/m2 in 12 Std. Sprühregen
Mi, 04.08. 2:00 0.3 l/m2 in 6 Std. Regen
Di, 03.08. 20:00 4 l/m2 in 12 Std. Regen
Di, 03.08. 14:00 0.0 l/m2 in 6 Std. -
Di, 03.08. 8:00 0.2 l/m2 in 12 Std. -
Di, 03.08. 2:00 0.2 l/m2 in 6 Std. Regen
Ortszeit Niederschlagsmenge Niederschlagsart
Mi, 04.08. 21:30 0.0 l/m2 in 1 Std. -
Mi, 04.08. 21:20 keine Meldung -
Mi, 04.08. 21:10 keine Meldung -
Mi, 04.08. 21:00 0.0 l/m2 in 1 Std. -
Mi, 04.08. 20:50 keine Meldung -
Mi, 04.08. 20:40 keine Meldung -
Mi, 04.08. 20:30 0.0 l/m2 in 1 Std. -
Mi, 04.08. 20:00 0.0 l/m2 in 1 Std. Regen
Mi, 04.08. 19:30 0.0 l/m2 in 1 Std. -
Mi, 04.08. 19:00 0.0 l/m2 in 1 Std. -
Mi, 04.08. 18:30 0.0 l/m2 in 1 Std. -
Ortszeit Stärke Spitze Richtung
km/h Bft. km/h Grad Sektor
Mi, 04.08. 20:00 4 1 18 200° S
Mi, 04.08. 14:00 6 1 13 190° S
Mi, 04.08. 8:00 4 1 11 150° SO
Mi, 04.08. 2:00 4 1 11 150° SO
Di, 03.08. 20:00 9 2 50 190° S
Di, 03.08. 14:00 9 2 24 270° W
Di, 03.08. 8:00 7 2 18 220° SW
Di, 03.08. 2:00 11 2 29 230° SW
Ortszeit Stärke Spitze Richtung
km/h Bft. km/h Grad Sektor
Mi, 04.08. 21:30 0 0 4 - -
Mi, 04.08. 21:20 2 1 - 130° SO
Mi, 04.08. 21:10 2 1 - 130° SO
Mi, 04.08. 21:00 4 1 4 140° SO
Mi, 04.08. 20:50 4 1 - 140° SO
Mi, 04.08. 20:40 2 1 - 140° SO
Mi, 04.08. 20:30 2 1 6 220° SW
Mi, 04.08. 20:00 4 1 11 200° S
Mi, 04.08. 19:30 4 1 11 130° SO
Mi, 04.08. 19:00 4 1 11 170° S
Mi, 04.08. 18:30 6 1 9 210° SW
Ortszeit Untergrenze Bedeckung Gattung
total tief tief mittel hoch
Mi, 04.08. 20:00 3300 m 8/8 8/8 - - -
Mi, 04.08. 14:00 3000 m 8/8 8/8 - - -
Mi, 04.08. 8:00 2400 m 8/8 8/8 - - -
Mi, 04.08. 2:00 2700 m 8/8 7/8 - - -
Di, 03.08. 20:00 2100 m 8/8 8/8 - - -
Di, 03.08. 14:00 1080 m 8/8 4/8 - - -
Di, 03.08. 8:00 3000 m 6/8 6/8 - - -
Di, 03.08. 2:00 2400 m 7/8 7/8 - - -
Ortszeit Bedeckungsgrad in Achtel und Wolkenuntergrenze
Mi, 04.08. 21:30 5(3300m) 8(7500m)
Mi, 04.08. 21:20 5(3300m) 8(7500m)
Mi, 04.08. 21:10 3(3300m) 8(7500m) 8(10500m)
Mi, 04.08. 21:00 4(2700m) 8(7800m) 8(10500m)
Mi, 04.08. 20:50 4(2700m) 8(7800m) 8(10500m)
Mi, 04.08. 20:40 5(2700m) 7(3300m) 8(8700m)
Mi, 04.08. 20:30 6(3300m) 6(8400m) 8(8700m)
Mi, 04.08. 20:00 8(3300m) 8(8400m) 8(9000m)
Mi, 04.08. 19:30 2(1170m) 7(3300m) 8(9000m)
Mi, 04.08. 19:00 3(2700m) 7(3300m) 7(9000m)
Mi, 04.08. 18:30 6(3300m) 6(3900m) 7(10500m)
Ortszeit Luftdruck NN (hPa) Tendenz (hPa in 3 Std.)
Mi, 04.08. 20:00 1012 - 0,6
Mi, 04.08. 14:00 1013 - 0,5
Mi, 04.08. 8:00 1014 + 0,6
Mi, 04.08. 2:00 1013 - 0,5
Di, 03.08. 20:00 1013 + 0,5
Di, 03.08. 14:00 1014 - 0,8
Di, 03.08. 8:00 1015 + 0,2
Di, 03.08. 2:00 1015 + 0,2
Ortszeit Luftdruck NN (hPa) Tendenz (hPa in 3 Std.)
Mi, 04.08. 21:30 1013 + 0,2
Mi, 04.08. 21:20 1013 keine Meldung
Mi, 04.08. 21:10 1013 keine Meldung
Mi, 04.08. 21:00 1012 - 0,2
Mi, 04.08. 20:50 1012 keine Meldung
Mi, 04.08. 20:40 1012 keine Meldung
Mi, 04.08. 20:30 1012 - 0,4
Mi, 04.08. 20:00 1012 - 0,6
Mi, 04.08. 19:30 1012 - 0,4
Mi, 04.08. 19:00 1012 - 0,4
Mi, 04.08. 18:30 1012 - 0,5
Ortszeit Schneehöhe (cm)
Mi, 04.08. 20:00 -
Mi, 04.08. 14:00 -
Mi, 04.08. 8:00 -
Mi, 04.08. 2:00 -
Di, 03.08. 20:00 -
Di, 03.08. 14:00 -
Di, 03.08. 8:00 -
Di, 03.08. 2:00 -
Ortszeit Schneehöhe (cm)
Mi, 04.08. 21:30 -
Mi, 04.08. 21:20 -
Mi, 04.08. 21:10 -
Mi, 04.08. 21:00 -
Mi, 04.08. 20:50 -
Mi, 04.08. 20:40 -
Mi, 04.08. 20:30 -
Mi, 04.08. 20:00 -
Mi, 04.08. 19:30 -
Mi, 04.08. 19:00 -
Mi, 04.08. 18:30 -
Link zu dieser Seite / Seite empfehlen

Das Wetter in ...